PWSweather.com
Personal Weather Stations
Station Observations
BAYOB95643
TirschenreuthDE 95643

TirschenreuthDE 95643

Lat: 49.8808388, Lon: 12.3298658

Elevation: 1637

Station Type: Davis Vantage Pro2+ Aktiv

http://www.tirschenreuth-wetter.de

Latest ConditionsUpdated 5:20:16 AM GMT+01:01 Friday, Dec 14, 2018
Currently Today's Max Today's Min Today's Average
Temperature 26.8°F-2.9°C 27.5°F-2.5°C 26.8°F-2.9°C 27.2°F-2.7°C
Dew Point 22.3°F-5.4°C 24.1°F-4.4°C 22.3°F-5.4°C 23.2°F-4.9°C
Winds 4.0 mph ENE6.4 kmh ENE 5.0 mph -8.0 kmh - - 3.2 mph 5.1 kmh
Wind Gusts 12.0 mph19.3 kmh 13.0 mph20.9 kmh - -
Humidity 83% 87% 83% 85%
Pressure 30.15 in1021.0 mb 30.16 in1021.3 mb 30.14 in1020.7 mb -
Hour Temp Dew Point Humidity Winds Wind Gusts Pressure Precip Precip Rate Daily Precip Total
05:20 AM 26.8°F-2.9°C 22.3°F-5.4°C 83% 4.0 mph ENE6.4 kmh ENE 12.0 mph19.3 kmh 30.15 in1021.0 mb 0.00 in0.0 mm 0.00 in0.0 mm 0.00 in0.0 mm
05:18 AM 26.8°F-2.9°C 22.3°F-5.4°C 83% 4.0 mph ENE6.4 kmh ENE 9.0 mph14.5 kmh 30.15 in1021.0 mb 0.00 in0.0 mm 0.00 in0.0 mm 0.00 in0.0 mm
05:16 AM 26.8°F-2.9°C 22.3°F-5.4°C 83% 4.0 mph ENE6.4 kmh ENE 11.0 mph17.7 kmh 30.15 in1021.0 mb 0.00 in0.0 mm 0.00 in0.0 mm 0.00 in0.0 mm
05:14 AM 26.8°F-2.9°C 22.3°F-5.4°C 83% 4.0 mph ENE6.4 kmh ENE 11.0 mph17.7 kmh 30.15 in1021.0 mb 0.00 in0.0 mm 0.00 in0.0 mm 0.00 in0.0 mm
05:12 AM 27.0°F-2.8°C 22.5°F-5.3°C 83% 4.0 mph ENE6.4 kmh ENE 12.0 mph19.3 kmh 30.15 in1021.0 mb 0.00 in0.0 mm 0.00 in0.0 mm 0.00 in0.0 mm
05:10 AM 27.0°F-2.8°C 22.5°F-5.3°C 83% 4.0 mph NE6.4 kmh NE 12.0 mph19.3 kmh 30.15 in1021.0 mb 0.00 in0.0 mm 0.00 in0.0 mm 0.00 in0.0 mm
05:08 AM 27.0°F-2.8°C 22.5°F-5.3°C 83% 4.0 mph NE6.4 kmh NE 12.0 mph19.3 kmh 30.15 in1021.0 mb 0.00 in0.0 mm 0.00 in0.0 mm 0.00 in0.0 mm
05:06 AM 27.0°F-2.8°C 22.5°F-5.3°C 83% 4.0 mph NE6.4 kmh NE 12.0 mph19.3 kmh 30.15 in1021.0 mb 0.00 in0.0 mm 0.00 in0.0 mm 0.00 in0.0 mm
05:04 AM 27.0°F-2.8°C 22.5°F-5.3°C 83% 4.0 mph NE6.4 kmh NE 12.0 mph19.3 kmh 30.15 in1021.0 mb 0.00 in0.0 mm 0.00 in0.0 mm 0.00 in0.0 mm
05:02 AM 27.0°F-2.8°C 22.5°F-5.3°C 83% 4.0 mph NE6.4 kmh NE 13.0 mph20.9 kmh 30.15 in1021.0 mb 0.00 in0.0 mm 0.00 in0.0 mm 0.00 in0.0 mm
05:00 AM 26.8°F-2.9°C 22.3°F-5.4°C 83% 4.0 mph NE6.4 kmh NE 13.0 mph20.9 kmh 30.15 in1021.0 mb 0.00 in0.0 mm 0.00 in0.0 mm 0.00 in0.0 mm
04:58 AM 27.0°F-2.8°C 22.5°F-5.3°C 83% 5.0 mph NE8.0 kmh NE 13.0 mph20.9 kmh 30.15 in1021.0 mb 0.00 in0.0 mm 0.00 in0.0 mm 0.00 in0.0 mm
04:56 AM 27.0°F-2.8°C 22.5°F-5.3°C 83% 5.0 mph NE8.0 kmh NE 13.0 mph20.9 kmh 30.15 in1021.0 mb 0.00 in0.0 mm 0.00 in0.0 mm 0.00 in0.0 mm
04:54 AM 27.0°F-2.8°C 22.5°F-5.3°C 83% 4.0 mph NE6.4 kmh NE 13.0 mph20.9 kmh 30.15 in1021.0 mb 0.00 in0.0 mm 0.00 in0.0 mm 0.00 in0.0 mm
04:52 AM 27.0°F-2.8°C 22.5°F-5.3°C 83% 4.0 mph NE6.4 kmh NE 12.0 mph19.3 kmh 30.15 in1021.0 mb 0.00 in0.0 mm 0.00 in0.0 mm 0.00 in0.0 mm
04:50 AM 27.0°F-2.8°C 22.5°F-5.3°C 83% 4.0 mph NE6.4 kmh NE 12.0 mph19.3 kmh 30.15 in1021.0 mb 0.00 in0.0 mm 0.00 in0.0 mm 0.00 in0.0 mm
04:48 AM 27.0°F-2.8°C 22.5°F-5.3°C 83% 4.0 mph ENE6.4 kmh ENE 12.0 mph19.3 kmh 30.15 in1021.0 mb 0.00 in0.0 mm 0.00 in0.0 mm 0.00 in0.0 mm
04:46 AM 27.0°F-2.8°C 22.5°F-5.3°C 83% 4.0 mph ENE6.4 kmh ENE 12.0 mph19.3 kmh 30.15 in1021.0 mb 0.00 in0.0 mm 0.00 in0.0 mm 0.00 in0.0 mm
04:44 AM 27.0°F-2.8°C 22.5°F-5.3°C 83% 4.0 mph ENE6.4 kmh ENE 11.0 mph17.7 kmh 30.15 in1021.0 mb 0.00 in0.0 mm 0.00 in0.0 mm 0.00 in0.0 mm
04:42 AM 27.0°F-2.8°C 22.5°F-5.3°C 83% 4.0 mph ENE6.4 kmh ENE 11.0 mph17.7 kmh 30.14 in1020.7 mb 0.00 in0.0 mm 0.00 in0.0 mm 0.00 in0.0 mm
04:40 AM 27.0°F-2.8°C 22.5°F-5.3°C 83% 4.0 mph ENE6.4 kmh ENE 11.0 mph17.7 kmh 30.14 in1020.7 mb 0.00 in0.0 mm 0.00 in0.0 mm 0.00 in0.0 mm
04:38 AM 27.0°F-2.8°C 22.5°F-5.3°C 83% 4.0 mph NE6.4 kmh NE 11.0 mph17.7 kmh 30.14 in1020.7 mb 0.00 in0.0 mm 0.00 in0.0 mm 0.00 in0.0 mm
04:36 AM 27.0°F-2.8°C 22.5°F-5.3°C 83% 4.0 mph NE6.4 kmh NE 11.0 mph17.7 kmh 30.14 in1020.7 mb 0.00 in0.0 mm 0.00 in0.0 mm 0.00 in0.0 mm
04:34 AM 27.0°F-2.8°C 22.5°F-5.3°C 83% 4.0 mph NE6.4 kmh NE 12.0 mph19.3 kmh 30.14 in1020.7 mb 0.00 in0.0 mm 0.00 in0.0 mm 0.00 in0.0 mm
04:32 AM 27.0°F-2.8°C 22.5°F-5.3°C 83% 3.0 mph NE4.8 kmh NE 12.0 mph19.3 kmh 30.14 in1020.7 mb 0.00 in0.0 mm 0.00 in0.0 mm 0.00 in0.0 mm
04:30 AM 27.0°F-2.8°C 22.5°F-5.3°C 83% 3.0 mph NE4.8 kmh NE 12.0 mph19.3 kmh 30.14 in1020.7 mb 0.00 in0.0 mm 0.00 in0.0 mm 0.00 in0.0 mm
04:28 AM 27.0°F-2.8°C 22.5°F-5.3°C 83% 3.0 mph NE4.8 kmh NE 12.0 mph19.3 kmh 30.15 in1021.0 mb 0.00 in0.0 mm 0.00 in0.0 mm 0.00 in0.0 mm
04:26 AM 27.0°F-2.8°C 22.5°F-5.3°C 83% 3.0 mph NE4.8 kmh NE 12.0 mph19.3 kmh 30.14 in1020.7 mb 0.00 in0.0 mm 0.00 in0.0 mm 0.00 in0.0 mm
04:24 AM 27.0°F-2.8°C 22.5°F-5.3°C 83% 3.0 mph NE4.8 kmh NE 11.0 mph17.7 kmh 30.15 in1021.0 mb 0.00 in0.0 mm 0.00 in0.0 mm 0.00 in0.0 mm
04:22 AM 27.0°F-2.8°C 22.5°F-5.3°C 83% 3.0 mph ENE4.8 kmh ENE 11.0 mph17.7 kmh 30.14 in1020.7 mb 0.00 in0.0 mm 0.00 in0.0 mm 0.00 in0.0 mm
04:20 AM 27.0°F-2.8°C 22.5°F-5.3°C 83% 3.0 mph ENE4.8 kmh ENE 11.0 mph17.7 kmh 30.14 in1020.7 mb 0.00 in0.0 mm 0.00 in0.0 mm 0.00 in0.0 mm
04:18 AM 27.0°F-2.8°C 22.8°F-5.1°C 84% 3.0 mph NE4.8 kmh NE 7.0 mph11.3 kmh 30.14 in1020.7 mb 0.00 in0.0 mm 0.00 in0.0 mm 0.00 in0.0 mm
04:16 AM 27.0°F-2.8°C 22.5°F-5.3°C 83% 3.0 mph NE4.8 kmh NE 8.0 mph12.9 kmh 30.14 in1020.7 mb 0.00 in0.0 mm 0.00 in0.0 mm 0.00 in0.0 mm
04:14 AM 27.0°F-2.8°C 22.8°F-5.1°C 84% 3.0 mph NE4.8 kmh NE 8.0 mph12.9 kmh 30.14 in1020.7 mb 0.00 in0.0 mm 0.00 in0.0 mm 0.00 in0.0 mm
04:12 AM 27.0°F-2.8°C 22.8°F-5.1°C 84% 3.0 mph NE4.8 kmh NE 8.0 mph12.9 kmh 30.14 in1020.7 mb 0.00 in0.0 mm 0.00 in0.0 mm 0.00 in0.0 mm
04:10 AM 27.1°F-2.7°C 22.9°F-5.1°C 84% 3.0 mph NE4.8 kmh NE 10.0 mph16.1 kmh 30.14 in1020.7 mb 0.00 in0.0 mm 0.00 in0.0 mm 0.00 in0.0 mm
04:08 AM 27.1°F-2.7°C 22.9°F-5.1°C 84% 3.0 mph NE4.8 kmh NE 10.0 mph16.1 kmh 30.14 in1020.7 mb 0.00 in0.0 mm 0.00 in0.0 mm 0.00 in0.0 mm
04:06 AM 27.1°F-2.7°C 22.9°F-5.1°C 84% 3.0 mph NE4.8 kmh NE 10.0 mph16.1 kmh 30.14 in1020.7 mb 0.00 in0.0 mm 0.00 in0.0 mm 0.00 in0.0 mm
04:04 AM 27.1°F-2.7°C 22.9°F-5.1°C 84% 3.0 mph NE4.8 kmh NE 10.0 mph16.1 kmh 30.14 in1020.7 mb 0.00 in0.0 mm 0.00 in0.0 mm 0.00 in0.0 mm
04:02 AM 27.1°F-2.7°C 22.7°F-5.2°C 83% 3.0 mph NE4.8 kmh NE 10.0 mph16.1 kmh 30.14 in1020.7 mb 0.00 in0.0 mm 0.00 in0.0 mm 0.00 in0.0 mm
04:00 AM 27.1°F-2.7°C 22.7°F-5.2°C 83% 3.0 mph NE4.8 kmh NE 9.0 mph14.5 kmh 30.14 in1020.7 mb 0.00 in0.0 mm 0.00 in0.0 mm 0.00 in0.0 mm
03:58 AM 27.1°F-2.7°C 22.7°F-5.2°C 83% 3.0 mph NE4.8 kmh NE 9.0 mph14.5 kmh 30.14 in1020.7 mb 0.00 in0.0 mm 0.00 in0.0 mm 0.00 in0.0 mm
03:56 AM 27.0°F-2.8°C 22.5°F-5.3°C 83% 3.0 mph NE4.8 kmh NE 10.0 mph16.1 kmh 30.14 in1020.7 mb 0.00 in0.0 mm 0.00 in0.0 mm 0.00 in0.0 mm
03:54 AM 27.1°F-2.7°C 22.7°F-5.2°C 83% 3.0 mph NE4.8 kmh NE 10.0 mph16.1 kmh 30.14 in1020.7 mb 0.00 in0.0 mm 0.00 in0.0 mm 0.00 in0.0 mm
03:52 AM 27.1°F-2.7°C 22.7°F-5.2°C 83% 3.0 mph NE4.8 kmh NE 10.0 mph16.1 kmh 30.14 in1020.7 mb 0.00 in0.0 mm 0.00 in0.0 mm 0.00 in0.0 mm
03:50 AM 27.1°F-2.7°C 22.7°F-5.2°C 83% 3.0 mph NE4.8 kmh NE 10.0 mph16.1 kmh 30.14 in1020.7 mb 0.00 in0.0 mm 0.00 in0.0 mm 0.00 in0.0 mm
03:48 AM 27.1°F-2.7°C 22.7°F-5.2°C 83% 3.0 mph NE4.8 kmh NE 10.0 mph16.1 kmh 30.14 in1020.7 mb 0.00 in0.0 mm 0.00 in0.0 mm 0.00 in0.0 mm
03:46 AM 27.1°F-2.7°C 22.7°F-5.2°C 83% 3.0 mph NE4.8 kmh NE 8.0 mph12.9 kmh 30.14 in1020.7 mb 0.00 in0.0 mm 0.00 in0.0 mm 0.00 in0.0 mm
03:44 AM 27.1°F-2.7°C 22.7°F-5.2°C 83% 3.0 mph NE4.8 kmh NE 8.0 mph12.9 kmh 30.14 in1020.7 mb 0.00 in0.0 mm 0.00 in0.0 mm 0.00 in0.0 mm
03:42 AM 27.1°F-2.7°C 22.7°F-5.2°C 83% 3.0 mph NE4.8 kmh NE 9.0 mph14.5 kmh 30.14 in1020.7 mb 0.00 in0.0 mm 0.00 in0.0 mm 0.00 in0.0 mm
03:40 AM 27.1°F-2.7°C 22.7°F-5.2°C 83% 3.0 mph NE4.8 kmh NE 9.0 mph14.5 kmh 30.14 in1020.7 mb 0.00 in0.0 mm 0.00 in0.0 mm 0.00 in0.0 mm
03:38 AM 27.1°F-2.7°C 22.9°F-5.1°C 84% 3.0 mph NE4.8 kmh NE 10.0 mph16.1 kmh 30.14 in1020.7 mb 0.00 in0.0 mm 0.00 in0.0 mm 0.00 in0.0 mm
03:36 AM 27.1°F-2.7°C 22.9°F-5.1°C 84% 3.0 mph NE4.8 kmh NE 10.0 mph16.1 kmh 30.15 in1021.0 mb 0.00 in0.0 mm 0.00 in0.0 mm 0.00 in0.0 mm
03:34 AM 27.1°F-2.7°C 22.9°F-5.1°C 84% 3.0 mph NE4.8 kmh NE 10.0 mph16.1 kmh 30.15 in1021.0 mb 0.00 in0.0 mm 0.00 in0.0 mm 0.00 in0.0 mm
03:32 AM 27.1°F-2.7°C 22.9°F-5.1°C 84% 2.0 mph NE3.2 kmh NE 10.0 mph16.1 kmh 30.14 in1020.7 mb 0.00 in0.0 mm 0.00 in0.0 mm 0.00 in0.0 mm
03:30 AM 27.1°F-2.7°C 22.9°F-5.1°C 84% 2.0 mph NE3.2 kmh NE 10.0 mph16.1 kmh 30.14 in1020.7 mb 0.00 in0.0 mm 0.00 in0.0 mm 0.00 in0.0 mm
03:28 AM 27.1°F-2.7°C 22.9°F-5.1°C 84% 2.0 mph NE3.2 kmh NE 8.0 mph12.9 kmh 30.15 in1021.0 mb 0.00 in0.0 mm 0.00 in0.0 mm 0.00 in0.0 mm
03:26 AM 27.1°F-2.7°C 22.9°F-5.1°C 84% 2.0 mph NE3.2 kmh NE 8.0 mph12.9 kmh 30.15 in1021.0 mb 0.00 in0.0 mm 0.00 in0.0 mm 0.00 in0.0 mm
03:24 AM 27.1°F-2.7°C 22.9°F-5.1°C 84% 2.0 mph NE3.2 kmh NE 8.0 mph12.9 kmh 30.15 in1021.0 mb 0.00 in0.0 mm 0.00 in0.0 mm 0.00 in0.0 mm
03:22 AM 27.1°F-2.7°C 22.9°F-5.1°C 84% 2.0 mph NE3.2 kmh NE 6.0 mph9.7 kmh 30.15 in1021.0 mb 0.00 in0.0 mm 0.00 in0.0 mm 0.00 in0.0 mm
03:20 AM 27.1°F-2.7°C 22.9°F-5.1°C 84% 2.0 mph NE3.2 kmh NE 8.0 mph12.9 kmh 30.15 in1021.0 mb 0.00 in0.0 mm 0.00 in0.0 mm 0.00 in0.0 mm
03:18 AM 27.1°F-2.7°C 22.9°F-5.1°C 84% 2.0 mph NE3.2 kmh NE 9.0 mph14.5 kmh 30.15 in1021.0 mb 0.00 in0.0 mm 0.00 in0.0 mm 0.00 in0.0 mm
03:16 AM 27.1°F-2.7°C 22.9°F-5.1°C 84% 2.0 mph NE3.2 kmh NE 9.0 mph14.5 kmh 30.15 in1021.0 mb 0.00 in0.0 mm 0.00 in0.0 mm 0.00 in0.0 mm
03:14 AM 27.1°F-2.7°C 22.9°F-5.1°C 84% 3.0 mph NE4.8 kmh NE 9.0 mph14.5 kmh 30.15 in1021.0 mb 0.00 in0.0 mm 0.00 in0.0 mm 0.00 in0.0 mm
03:12 AM 27.1°F-2.7°C 22.9°F-5.1°C 84% 3.0 mph ENE4.8 kmh ENE 9.0 mph14.5 kmh 30.15 in1021.0 mb 0.00 in0.0 mm 0.00 in0.0 mm 0.00 in0.0 mm
03:10 AM 27.1°F-2.7°C 22.9°F-5.1°C 84% 3.0 mph ENE4.8 kmh ENE 9.0 mph14.5 kmh 30.15 in1021.0 mb 0.00 in0.0 mm 0.00 in0.0 mm 0.00 in0.0 mm
03:08 AM 27.1°F-2.7°C 22.9°F-5.1°C 84% 3.0 mph ENE4.8 kmh ENE 7.0 mph11.3 kmh 30.15 in1021.0 mb 0.00 in0.0 mm 0.00 in0.0 mm 0.00 in0.0 mm
03:06 AM 27.1°F-2.7°C 22.9°F-5.1°C 84% 4.0 mph ENE6.4 kmh ENE 9.0 mph14.5 kmh 30.15 in1021.0 mb 0.00 in0.0 mm 0.00 in0.0 mm 0.00 in0.0 mm
03:04 AM 27.3°F-2.6°C 23.1°F-4.9°C 84% 4.0 mph ENE6.4 kmh ENE 9.0 mph14.5 kmh 30.15 in1021.0 mb 0.00 in0.0 mm 0.00 in0.0 mm 0.00 in0.0 mm
03:02 AM 27.3°F-2.6°C 23.1°F-4.9°C 84% 3.0 mph ENE4.8 kmh ENE 9.0 mph14.5 kmh 30.15 in1021.0 mb 0.00 in0.0 mm 0.00 in0.0 mm 0.00 in0.0 mm
02:58 AM 27.3°F-2.6°C 23.1°F-4.9°C 84% 3.0 mph NE4.8 kmh NE 12.0 mph19.3 kmh 30.15 in1021.0 mb 0.00 in0.0 mm 0.00 in0.0 mm 0.00 in0.0 mm
02:56 AM 27.3°F-2.6°C 23.1°F-4.9°C 84% 3.0 mph NE4.8 kmh NE 12.0 mph19.3 kmh 30.15 in1021.0 mb 0.00 in0.0 mm 0.00 in0.0 mm 0.00 in0.0 mm
02:54 AM 27.3°F-2.6°C 23.1°F-4.9°C 84% 3.0 mph NE4.8 kmh NE 8.0 mph12.9 kmh 30.15 in1021.0 mb 0.00 in0.0 mm 0.00 in0.0 mm 0.00 in0.0 mm
02:52 AM 27.3°F-2.6°C 23.1°F-4.9°C 84% 4.0 mph NE6.4 kmh NE 8.0 mph12.9 kmh 30.15 in1021.0 mb 0.00 in0.0 mm 0.00 in0.0 mm 0.00 in0.0 mm
02:50 AM 27.3°F-2.6°C 23.1°F-4.9°C 84% 4.0 mph NE6.4 kmh NE 10.0 mph16.1 kmh 30.15 in1021.0 mb 0.00 in0.0 mm 0.00 in0.0 mm 0.00 in0.0 mm
02:48 AM 27.3°F-2.6°C 23.1°F-4.9°C 84% 5.0 mph NE8.0 kmh NE 10.0 mph16.1 kmh 30.15 in1021.0 mb 0.00 in0.0 mm 0.00 in0.0 mm 0.00 in0.0 mm
02:46 AM 27.3°F-2.6°C 23.4°F-4.8°C 85% 5.0 mph NE8.0 kmh NE 10.0 mph16.1 kmh 30.15 in1021.0 mb 0.00 in0.0 mm 0.00 in0.0 mm 0.00 in0.0 mm
02:44 AM 27.3°F-2.6°C 23.4°F-4.8°C 85% 5.0 mph NE8.0 kmh NE 10.0 mph16.1 kmh 30.15 in1021.0 mb 0.00 in0.0 mm 0.00 in0.0 mm 0.00 in0.0 mm
02:42 AM 27.3°F-2.6°C 23.4°F-4.8°C 85% 4.0 mph NE6.4 kmh NE 10.0 mph16.1 kmh 30.15 in1021.0 mb 0.00 in0.0 mm 0.00 in0.0 mm 0.00 in0.0 mm
02:40 AM 27.3°F-2.6°C 23.4°F-4.8°C 85% 4.0 mph ENE6.4 kmh ENE 11.0 mph17.7 kmh 30.15 in1021.0 mb 0.00 in0.0 mm 0.00 in0.0 mm 0.00 in0.0 mm
02:38 AM 27.3°F-2.6°C 23.4°F-4.8°C 85% 3.0 mph ENE4.8 kmh ENE 11.0 mph17.7 kmh 30.15 in1021.0 mb 0.00 in0.0 mm 0.00 in0.0 mm 0.00 in0.0 mm
02:36 AM 27.3°F-2.6°C 23.1°F-4.9°C 84% 3.0 mph ENE4.8 kmh ENE 11.0 mph17.7 kmh 30.15 in1021.0 mb 0.00 in0.0 mm 0.00 in0.0 mm 0.00 in0.0 mm
02:34 AM 27.3°F-2.6°C 23.1°F-4.9°C 84% 2.0 mph NE3.2 kmh NE 11.0 mph17.7 kmh 30.15 in1021.0 mb 0.00 in0.0 mm 0.00 in0.0 mm 0.00 in0.0 mm
02:32 AM 27.3°F-2.6°C 23.4°F-4.8°C 85% 2.0 mph NE3.2 kmh NE 11.0 mph17.7 kmh 30.15 in1021.0 mb 0.00 in0.0 mm 0.00 in0.0 mm 0.00 in0.0 mm
02:30 AM 27.3°F-2.6°C 23.4°F-4.8°C 85% 2.0 mph NE3.2 kmh NE 11.0 mph17.7 kmh 30.15 in1021.0 mb 0.00 in0.0 mm 0.00 in0.0 mm 0.00 in0.0 mm
02:28 AM 27.3°F-2.6°C 23.4°F-4.8°C 85% 2.0 mph NE3.2 kmh NE 11.0 mph17.7 kmh 30.15 in1021.0 mb 0.00 in0.0 mm 0.00 in0.0 mm 0.00 in0.0 mm
02:26 AM 27.3°F-2.6°C 23.4°F-4.8°C 85% 3.0 mph ENE4.8 kmh ENE 7.0 mph11.3 kmh 30.15 in1021.0 mb 0.00 in0.0 mm 0.00 in0.0 mm 0.00 in0.0 mm
02:24 AM 27.3°F-2.6°C 23.4°F-4.8°C 85% 3.0 mph ENE4.8 kmh ENE 8.0 mph12.9 kmh 30.15 in1021.0 mb 0.00 in0.0 mm 0.00 in0.0 mm 0.00 in0.0 mm
02:22 AM 27.3°F-2.6°C 23.4°F-4.8°C 85% 3.0 mph NE4.8 kmh NE 10.0 mph16.1 kmh 30.15 in1021.0 mb 0.00 in0.0 mm 0.00 in0.0 mm 0.00 in0.0 mm
02:20 AM 27.3°F-2.6°C 23.4°F-4.8°C 85% 3.0 mph NE4.8 kmh NE 11.0 mph17.7 kmh 30.15 in1021.0 mb 0.00 in0.0 mm 0.00 in0.0 mm 0.00 in0.0 mm
02:18 AM 27.3°F-2.6°C 23.4°F-4.8°C 85% 3.0 mph NE4.8 kmh NE 11.0 mph17.7 kmh 30.15 in1021.0 mb 0.00 in0.0 mm 0.00 in0.0 mm 0.00 in0.0 mm
02:16 AM 27.3°F-2.6°C 23.4°F-4.8°C 85% 3.0 mph NE4.8 kmh NE 11.0 mph17.7 kmh 30.15 in1021.0 mb 0.00 in0.0 mm 0.00 in0.0 mm 0.00 in0.0 mm
02:14 AM 27.3°F-2.6°C 23.4°F-4.8°C 85% 3.0 mph NE4.8 kmh NE 11.0 mph17.7 kmh 30.16 in1021.3 mb 0.00 in0.0 mm 0.00 in0.0 mm 0.00 in0.0 mm
02:12 AM 27.3°F-2.6°C 23.4°F-4.8°C 85% 3.0 mph NE4.8 kmh NE 11.0 mph17.7 kmh 30.16 in1021.3 mb 0.00 in0.0 mm 0.00 in0.0 mm 0.00 in0.0 mm
02:10 AM 27.3°F-2.6°C 23.4°F-4.8°C 85% 3.0 mph NE4.8 kmh NE 8.0 mph12.9 kmh 30.16 in1021.3 mb 0.00 in0.0 mm 0.00 in0.0 mm 0.00 in0.0 mm
02:08 AM 27.3°F-2.6°C 23.4°F-4.8°C 85% 3.0 mph NE4.8 kmh NE 8.0 mph12.9 kmh 30.16 in1021.3 mb 0.00 in0.0 mm 0.00 in0.0 mm 0.00 in0.0 mm
02:06 AM 27.3°F-2.6°C 23.4°F-4.8°C 85% 3.0 mph NE4.8 kmh NE 8.0 mph12.9 kmh 30.15 in1021.0 mb 0.00 in0.0 mm 0.00 in0.0 mm 0.00 in0.0 mm
02:04 AM 27.3°F-2.6°C 23.4°F-4.8°C 85% 3.0 mph NE4.8 kmh NE 8.0 mph12.9 kmh 30.15 in1021.0 mb 0.00 in0.0 mm 0.00 in0.0 mm 0.00 in0.0 mm
02:02 AM 27.3°F-2.6°C 23.4°F-4.8°C 85% 3.0 mph NE4.8 kmh NE 11.0 mph17.7 kmh 30.15 in1021.0 mb 0.00 in0.0 mm 0.00 in0.0 mm 0.00 in0.0 mm
02:00 AM 27.3°F-2.6°C 23.4°F-4.8°C 85% 3.0 mph NE4.8 kmh NE 11.0 mph17.7 kmh 30.15 in1021.0 mb 0.00 in0.0 mm 0.00 in0.0 mm 0.00 in0.0 mm
01:58 AM 27.3°F-2.6°C 23.4°F-4.8°C 85% 3.0 mph NE4.8 kmh NE 11.0 mph17.7 kmh 30.15 in1021.0 mb 0.00 in0.0 mm 0.00 in0.0 mm 0.00 in0.0 mm
01:56 AM 27.3°F-2.6°C 23.4°F-4.8°C 85% 3.0 mph NE4.8 kmh NE 11.0 mph17.7 kmh 30.15 in1021.0 mb 0.00 in0.0 mm 0.00 in0.0 mm 0.00 in0.0 mm
01:54 AM 27.3°F-2.6°C 23.4°F-4.8°C 85% 3.0 mph NE4.8 kmh NE 11.0 mph17.7 kmh 30.15 in1021.0 mb 0.00 in0.0 mm 0.00 in0.0 mm 0.00 in0.0 mm
01:52 AM 27.3°F-2.6°C 23.4°F-4.8°C 85% 3.0 mph NE4.8 kmh NE 8.0 mph12.9 kmh 30.15 in1021.0 mb 0.00 in0.0 mm 0.00 in0.0 mm 0.00 in0.0 mm
01:50 AM 27.1°F-2.7°C 23.2°F-4.9°C 85% 2.0 mph NE3.2 kmh NE 8.0 mph12.9 kmh 30.15 in1021.0 mb 0.00 in0.0 mm 0.00 in0.0 mm 0.00 in0.0 mm
01:48 AM 27.1°F-2.7°C 23.2°F-4.9°C 85% 2.0 mph NE3.2 kmh NE 8.0 mph12.9 kmh 30.15 in1021.0 mb 0.00 in0.0 mm 0.00 in0.0 mm 0.00 in0.0 mm
01:46 AM 27.1°F-2.7°C 23.2°F-4.9°C 85% 2.0 mph NE3.2 kmh NE 8.0 mph12.9 kmh 30.15 in1021.0 mb 0.00 in0.0 mm 0.00 in0.0 mm 0.00 in0.0 mm
01:44 AM 27.3°F-2.6°C 23.4°F-4.8°C 85% 2.0 mph NE3.2 kmh NE 8.0 mph12.9 kmh 30.15 in1021.0 mb 0.00 in0.0 mm 0.00 in0.0 mm 0.00 in0.0 mm
01:42 AM 27.1°F-2.7°C 23.2°F-4.9°C 85% 2.0 mph NE3.2 kmh NE 8.0 mph12.9 kmh 30.15 in1021.0 mb 0.00 in0.0 mm 0.00 in0.0 mm 0.00 in0.0 mm
01:40 AM 27.3°F-2.6°C 23.4°F-4.8°C 85% 2.0 mph NE3.2 kmh NE 8.0 mph12.9 kmh 30.15 in1021.0 mb 0.00 in0.0 mm 0.00 in0.0 mm 0.00 in0.0 mm
01:38 AM 27.1°F-2.7°C 23.2°F-4.9°C 85% 2.0 mph NE3.2 kmh NE 8.0 mph12.9 kmh 30.15 in1021.0 mb 0.00 in0.0 mm 0.00 in0.0 mm 0.00 in0.0 mm
01:36 AM 27.1°F-2.7°C 23.2°F-4.9°C 85% 3.0 mph NE4.8 kmh NE 8.0 mph12.9 kmh 30.15 in1021.0 mb 0.00 in0.0 mm 0.00 in0.0 mm 0.00 in0.0 mm
01:34 AM 27.1°F-2.7°C 23.2°F-4.9°C 85% 3.0 mph ENE4.8 kmh ENE 10.0 mph16.1 kmh 30.15 in1021.0 mb 0.00 in0.0 mm 0.00 in0.0 mm 0.00 in0.0 mm
01:32 AM 27.1°F-2.7°C 23.2°F-4.9°C 85% 3.0 mph ENE4.8 kmh ENE 10.0 mph16.1 kmh 30.15 in1021.0 mb 0.00 in0.0 mm 0.00 in0.0 mm 0.00 in0.0 mm
01:30 AM 27.1°F-2.7°C 23.2°F-4.9°C 85% 3.0 mph ENE4.8 kmh ENE 10.0 mph16.1 kmh 30.14 in1020.7 mb 0.00 in0.0 mm 0.00 in0.0 mm 0.00 in0.0 mm
01:28 AM 27.1°F-2.7°C 23.5°F-4.7°C 86% 3.0 mph ENE4.8 kmh ENE 10.0 mph16.1 kmh 30.15 in1021.0 mb 0.00 in0.0 mm 0.00 in0.0 mm 0.00 in0.0 mm
01:26 AM 27.1°F-2.7°C 23.2°F-4.9°C 85% 3.0 mph ENE4.8 kmh ENE 10.0 mph16.1 kmh 30.14 in1020.7 mb 0.00 in0.0 mm 0.00 in0.0 mm 0.00 in0.0 mm
01:24 AM 27.1°F-2.7°C 23.2°F-4.9°C 85% 3.0 mph NE4.8 kmh NE 9.0 mph14.5 kmh 30.14 in1020.7 mb 0.00 in0.0 mm 0.00 in0.0 mm 0.00 in0.0 mm
01:22 AM 27.1°F-2.7°C 23.2°F-4.9°C 85% 3.0 mph NE4.8 kmh NE 9.0 mph14.5 kmh 30.14 in1020.7 mb 0.00 in0.0 mm 0.00 in0.0 mm 0.00 in0.0 mm
01:20 AM 27.1°F-2.7°C 23.2°F-4.9°C 85% 3.0 mph NE4.8 kmh NE 9.0 mph14.5 kmh 30.14 in1020.7 mb 0.00 in0.0 mm 0.00 in0.0 mm 0.00 in0.0 mm
01:18 AM 27.1°F-2.7°C 23.2°F-4.9°C 85% 3.0 mph ENE4.8 kmh ENE 11.0 mph17.7 kmh 30.14 in1020.7 mb 0.00 in0.0 mm 0.00 in0.0 mm 0.00 in0.0 mm
01:16 AM 27.1°F-2.7°C 23.2°F-4.9°C 85% 3.0 mph ENE4.8 kmh ENE 11.0 mph17.7 kmh 30.14 in1020.7 mb 0.00 in0.0 mm 0.00 in0.0 mm 0.00 in0.0 mm
01:14 AM 27.1°F-2.7°C 23.5°F-4.7°C 86% 2.0 mph ENE3.2 kmh ENE 11.0 mph17.7 kmh 30.14 in1020.7 mb 0.00 in0.0 mm 0.00 in0.0 mm 0.00 in0.0 mm
01:12 AM 27.1°F-2.7°C 23.5°F-4.7°C 86% 2.0 mph ENE3.2 kmh ENE 11.0 mph17.7 kmh 30.14 in1020.7 mb 0.00 in0.0 mm 0.00 in0.0 mm 0.00 in0.0 mm
01:10 AM 27.1°F-2.7°C 23.5°F-4.7°C 86% 2.0 mph NE3.2 kmh NE 11.0 mph17.7 kmh 30.14 in1020.7 mb 0.00 in0.0 mm 0.00 in0.0 mm 0.00 in0.0 mm
01:08 AM 27.1°F-2.7°C 23.5°F-4.7°C 86% 2.0 mph NE3.2 kmh NE 11.0 mph17.7 kmh 30.14 in1020.7 mb 0.00 in0.0 mm 0.00 in0.0 mm 0.00 in0.0 mm
01:06 AM 27.1°F-2.7°C 23.5°F-4.7°C 86% 2.0 mph ENE3.2 kmh ENE 6.0 mph9.7 kmh 30.14 in1020.7 mb 0.00 in0.0 mm 0.00 in0.0 mm 0.00 in0.0 mm
01:04 AM 27.1°F-2.7°C 23.5°F-4.7°C 86% 2.0 mph ENE3.2 kmh ENE 6.0 mph9.7 kmh 30.14 in1020.7 mb 0.00 in0.0 mm 0.00 in0.0 mm 0.00 in0.0 mm
01:02 AM 27.1°F-2.7°C 23.5°F-4.7°C 86% 2.0 mph E3.2 kmh E 8.0 mph12.9 kmh 30.14 in1020.7 mb 0.00 in0.0 mm 0.00 in0.0 mm 0.00 in0.0 mm
01:00 AM 27.3°F-2.6°C 23.7°F-4.6°C 86% 3.0 mph ENE4.8 kmh ENE 8.0 mph12.9 kmh 30.14 in1020.7 mb 0.00 in0.0 mm 0.00 in0.0 mm 0.00 in0.0 mm
12:58 AM 27.1°F-2.7°C 23.5°F-4.7°C 86% 3.0 mph ENE4.8 kmh ENE 8.0 mph12.9 kmh 30.14 in1020.7 mb 0.00 in0.0 mm 0.00 in0.0 mm 0.00 in0.0 mm
12:56 AM 27.3°F-2.6°C 23.7°F-4.6°C 86% 3.0 mph ENE4.8 kmh ENE 8.0 mph12.9 kmh 30.14 in1020.7 mb 0.00 in0.0 mm 0.00 in0.0 mm 0.00 in0.0 mm
12:54 AM 27.3°F-2.6°C 23.7°F-4.6°C 86% 4.0 mph ENE6.4 kmh ENE 9.0 mph14.5 kmh 30.14 in1020.7 mb 0.00 in0.0 mm 0.00 in0.0 mm 0.00 in0.0 mm
12:52 AM 27.3°F-2.6°C 24.0°F-4.4°C 87% 4.0 mph ENE6.4 kmh ENE 9.0 mph14.5 kmh 30.14 in1020.7 mb 0.00 in0.0 mm 0.00 in0.0 mm 0.00 in0.0 mm
12:50 AM 27.3°F-2.6°C 24.0°F-4.4°C 87% 4.0 mph ENE6.4 kmh ENE 9.0 mph14.5 kmh 30.14 in1020.7 mb 0.00 in0.0 mm 0.00 in0.0 mm 0.00 in0.0 mm
12:48 AM 27.3°F-2.6°C 24.0°F-4.4°C 87% 4.0 mph ENE6.4 kmh ENE 9.0 mph14.5 kmh 30.14 in1020.7 mb 0.00 in0.0 mm 0.00 in0.0 mm 0.00 in0.0 mm
12:46 AM 27.3°F-2.6°C 24.0°F-4.4°C 87% 4.0 mph ENE6.4 kmh ENE 9.0 mph14.5 kmh 30.14 in1020.7 mb 0.00 in0.0 mm 0.00 in0.0 mm 0.00 in0.0 mm
12:44 AM 27.3°F-2.6°C 24.0°F-4.4°C 87% 4.0 mph ENE6.4 kmh ENE 9.0 mph14.5 kmh 30.14 in1020.7 mb 0.00 in0.0 mm 0.00 in0.0 mm 0.00 in0.0 mm
12:42 AM 27.3°F-2.6°C 24.0°F-4.4°C 87% 4.0 mph ENE6.4 kmh ENE 9.0 mph14.5 kmh 30.14 in1020.7 mb 0.00 in0.0 mm 0.00 in0.0 mm 0.00 in0.0 mm
12:40 AM 27.3°F-2.6°C 24.0°F-4.4°C 87% 4.0 mph ENE6.4 kmh ENE 9.0 mph14.5 kmh 30.14 in1020.7 mb 0.00 in0.0 mm 0.00 in0.0 mm 0.00 in0.0 mm
12:38 AM 27.3°F-2.6°C 24.0°F-4.4°C 87% 4.0 mph ENE6.4 kmh ENE 9.0 mph14.5 kmh 30.14 in1020.7 mb 0.00 in0.0 mm 0.00 in0.0 mm 0.00 in0.0 mm
12:36 AM 27.3°F-2.6°C 24.0°F-4.4°C 87% 4.0 mph ENE6.4 kmh ENE 9.0 mph14.5 kmh 30.14 in1020.7 mb 0.00 in0.0 mm 0.00 in0.0 mm 0.00 in0.0 mm
12:34 AM 27.3°F-2.6°C 24.0°F-4.4°C 87% 4.0 mph ENE6.4 kmh ENE 9.0 mph14.5 kmh 30.14 in1020.7 mb 0.00 in0.0 mm 0.00 in0.0 mm 0.00 in0.0 mm
12:32 AM 27.3°F-2.6°C 24.0°F-4.4°C 87% 3.0 mph ENE4.8 kmh ENE 9.0 mph14.5 kmh 30.14 in1020.7 mb 0.00 in0.0 mm 0.00 in0.0 mm 0.00 in0.0 mm
12:30 AM 27.3°F-2.6°C 24.0°F-4.4°C 87% 3.0 mph NE4.8 kmh NE 9.0 mph14.5 kmh 30.14 in1020.7 mb 0.00 in0.0 mm 0.00 in0.0 mm 0.00 in0.0 mm
12:28 AM 27.3°F-2.6°C 24.0°F-4.4°C 87% 2.0 mph NE3.2 kmh NE 8.0 mph12.9 kmh 30.14 in1020.7 mb 0.00 in0.0 mm 0.00 in0.0 mm 0.00 in0.0 mm
12:26 AM 27.3°F-2.6°C 24.0°F-4.4°C 87% 2.0 mph ENE3.2 kmh ENE 8.0 mph12.9 kmh 30.14 in1020.7 mb 0.00 in0.0 mm 0.00 in0.0 mm 0.00 in0.0 mm
12:24 AM 27.3°F-2.6°C 24.0°F-4.4°C 87% 2.0 mph ENE3.2 kmh ENE 8.0 mph12.9 kmh 30.14 in1020.7 mb 0.00 in0.0 mm 0.00 in0.0 mm 0.00 in0.0 mm
12:22 AM 27.3°F-2.6°C 24.0°F-4.4°C 87% 3.0 mph ENE4.8 kmh ENE 8.0 mph12.9 kmh 30.14 in1020.7 mb 0.00 in0.0 mm 0.00 in0.0 mm 0.00 in0.0 mm
12:20 AM 27.5°F-2.5°C 24.1°F-4.4°C 87% 3.0 mph ENE4.8 kmh ENE 8.0 mph12.9 kmh 30.14 in1020.7 mb 0.00 in0.0 mm 0.00 in0.0 mm 0.00 in0.0 mm
12:18 AM 27.5°F-2.5°C 24.1°F-4.4°C 87% 3.0 mph ENE4.8 kmh ENE 9.0 mph14.5 kmh 30.14 in1020.7 mb 0.00 in0.0 mm 0.00 in0.0 mm 0.00 in0.0 mm
12:16 AM 27.5°F-2.5°C 24.1°F-4.4°C 87% 3.0 mph ENE4.8 kmh ENE 11.0 mph17.7 kmh 30.14 in1020.7 mb 0.00 in0.0 mm 0.00 in0.0 mm 0.00 in0.0 mm
12:14 AM 27.5°F-2.5°C 24.1°F-4.4°C 87% 3.0 mph ENE4.8 kmh ENE 11.0 mph17.7 kmh 30.14 in1020.7 mb 0.00 in0.0 mm 0.00 in0.0 mm 0.00 in0.0 mm
12:12 AM 27.5°F-2.5°C 24.1°F-4.4°C 87% 3.0 mph ENE4.8 kmh ENE 11.0 mph17.7 kmh 30.14 in1020.7 mb 0.00 in0.0 mm 0.00 in0.0 mm 0.00 in0.0 mm
12:10 AM 27.5°F-2.5°C 24.1°F-4.4°C 87% 3.0 mph ENE4.8 kmh ENE 11.0 mph17.7 kmh 30.14 in1020.7 mb 0.00 in0.0 mm 0.00 in0.0 mm 0.00 in0.0 mm
12:08 AM 27.5°F-2.5°C 23.9°F-4.5°C 86% 4.0 mph ENE6.4 kmh ENE 11.0 mph17.7 kmh 30.14 in1020.7 mb 0.00 in0.0 mm 0.00 in0.0 mm 0.00 in0.0 mm
12:06 AM 27.5°F-2.5°C 23.9°F-4.5°C 86% 4.0 mph ENE6.4 kmh ENE 11.0 mph17.7 kmh 30.14 in1020.7 mb 0.00 in0.0 mm 0.00 in0.0 mm 0.00 in0.0 mm
12:04 AM 27.5°F-2.5°C 23.9°F-4.5°C 86% 4.0 mph ENE6.4 kmh ENE 11.0 mph17.7 kmh 30.14 in1020.7 mb 0.00 in0.0 mm 0.00 in0.0 mm 0.00 in0.0 mm
12:02 AM 27.5°F-2.5°C 23.9°F-4.5°C 86% 4.0 mph ENE6.4 kmh ENE 13.0 mph20.9 kmh 30.14 in1020.7 mb 0.00 in0.0 mm 0.00 in0.0 mm 0.00 in0.0 mm
12:00 AM 27.5°F-2.5°C 23.9°F-4.5°C 86% 4.0 mph ENE6.4 kmh ENE 13.0 mph20.9 kmh 30.14 in1020.7 mb 0.00 in0.0 mm 0.00 in0.0 mm 0.00 in0.0 mm